Time;durP1;ratioP1;P1;durP2;ratioP2;P2;SDS_P1;SDS_P2;PMS_P1;PMS_P2;Temp;Humidity;BMP_temperature;BMP_pressure;BME280_temperature;BME280_humidity;BME280_pressure;Samples;Min_cycle;Max_cycle;Signal;HPM_P1;HPM_P2
2022/07/14 00:01:21;;;;;;;3.67;1.10;;;21.20;72.80;;;;;;5090988;28;20062;-75
2022/07/14 00:03:47;;;;;;;1.75;1.23;;;21.30;71.30;;;;;;5086163;28;20048;-77
2022/07/14 00:06:12;;;;;;;1.80;1.20;;;21.50;71.30;;;;;;5093350;28;20111;-76
2022/07/14 00:08:39;;;;;;;1.63;1.25;;;21.60;71.40;;;;;;5089431;28;20067;-75
2022/07/14 00:11:05;;;;;;;2.67;0.98;;;21.70;71.10;;;;;;5091312;28;20027;-76
2022/07/14 00:13:31;;;;;;;2.55;1.23;;;21.80;71.60;;;;;;5087358;28;20373;-76
2022/07/14 00:15:57;;;;;;;1.30;1.17;;;21.80;71.70;;;;;;5092400;28;20036;-76
2022/07/14 00:18:22;;;;;;;1.00;1.00;;;21.80;72.60;;;;;;5092084;28;20342;-73
2022/07/14 00:20:48;;;;;;;2.97;1.30;;;21.70;73.10;;;;;;5084775;28;20074;-75
2022/07/14 00:23:14;;;;;;;3.13;1.55;;;21.60;73.80;;;;;;5087559;28;20508;-75
2022/07/14 00:25:39;;;;;;;2.08;1.23;;;21.50;74.20;;;;;;5099652;28;20036;-76
2022/07/14 00:28:05;;;;;;;2.58;1.50;;;21.40;74.10;;;;;;5095291;28;20058;-74
2022/07/14 00:30:31;;;;;;;2.05;1.40;;;21.30;73.90;;;;;;5095285;28;20032;-75
2022/07/14 00:32:56;;;;;;;1.73;1.30;;;21.20;73.80;;;;;;5091581;28;20028;-73
2022/07/14 00:35:22;;;;;;;2.33;1.35;;;21.10;73.80;;;;;;5093037;28;20606;-76
2022/07/14 00:37:47;;;;;;;1.27;1.10;;;21.10;74.00;;;;;;5087617;28;20036;-74
2022/07/14 00:40:13;;;;;;;2.55;1.40;;;21.00;74.20;;;;;;5096505;28;20025;-74
2022/07/14 00:42:41;;;;;;;2.38;1.58;;;20.90;74.90;;;;;;5099123;28;20081;-75
2022/07/14 00:45:18;;;;;;;2.72;2.00;;;20.90;75.70;;;;;;5091864;28;20439;-74
2022/07/14 00:47:44;;;;;;;4.38;2.00;;;20.90;76.70;;;;;;5089257;28;20107;-74
2022/07/14 00:50:12;;;;;;;3.65;1.83;;;20.90;77.10;;;;;;5097648;28;20034;-75
2022/07/14 00:52:40;;;;;;;3.58;1.83;;;20.80;77.30;;;;;;5092049;28;20034;-74
2022/07/14 00:55:06;;;;;;;3.38;1.90;;;20.80;79.10;;;;;;5090183;28;20477;-74
2022/07/14 00:57:31;;;;;;;2.55;2.05;;;20.70;78.50;;;;;;5094239;28;20028;-75
2022/07/14 00:59:57;;;;;;;2.20;1.60;;;20.60;78.70;;;;;;5093276;28;20043;-75
2022/07/14 01:02:23;;;;;;;3.10;1.50;;;20.50;78.90;;;;;;5093642;28;20099;-75
2022/07/14 01:04:49;;;;;;;2.17;1.58;;;20.40;79.00;;;;;;5094767;28;20119;-75
2022/07/14 01:07:16;;;;;;;3.08;2.00;;;20.40;79.50;;;;;;5094028;28;20035;-73
2022/07/14 01:09:43;;;;;;;3.33;1.80;;;20.30;80.30;;;;;;5097089;28;20449;-72
2022/07/14 01:12:09;;;;;;;2.38;2.13;;;20.20;80.60;;;;;;5099074;28;20023;-73
2022/07/14 01:14:36;;;;;;;2.05;1.45;;;20.10;80.90;;;;;;5098142;28;20056;-74
2022/07/14 01:17:03;;;;;;;3.47;1.77;;;20.10;80.70;;;;;;5100209;28;20078;-71
2022/07/14 01:19:29;;;;;;;1.92;1.52;;;20.00;80.70;;;;;;5088697;28;20055;-74
2022/07/14 01:21:56;;;;;;;2.90;1.30;;;19.90;80.80;;;;;;5096830;28;20060;-73
2022/07/14 01:24:23;;;;;;;3.33;1.58;;;19.90;80.70;;;;;;5070222;28;20048;-74
2022/07/14 01:26:49;;;;;;;3.15;1.25;;;19.80;80.30;;;;;;5096963;28;20075;-74
2022/07/14 01:29:15;;;;;;;1.65;1.50;;;19.80;80.20;;;;;;5089858;28;20460;-74
2022/07/14 01:31:41;;;;;;;1.85;1.20;;;19.70;80.90;;;;;;5093215;28;20024;-74
2022/07/14 01:34:07;;;;;;;1.65;1.42;;;19.70;81.40;;;;;;5095867;28;20020;-74
2022/07/14 01:36:33;;;;;;;1.83;1.60;;;19.70;82.20;;;;;;5095382;28;20032;-75
2022/07/14 01:38:59;;;;;;;3.35;1.45;;;19.50;82.20;;;;;;5094331;28;20133;-74
2022/07/14 01:41:25;;;;;;;1.42;1.33;;;19.40;82.70;;;;;;5093592;28;20066;-74
2022/07/14 01:43:50;;;;;;;2.30;1.50;;;19.30;83.10;;;;;;5098699;28;20024;-74
2022/07/14 01:46:16;;;;;;;1.25;1.15;;;19.30;83.50;;;;;;5091433;28;20388;-75
2022/07/14 01:48:42;;;;;;;2.03;1.42;;;19.20;83.60;;;;;;5087571;28;20499;-75
2022/07/14 01:51:08;;;;;;;3.90;1.52;;;19.10;83.80;;;;;;5089516;28;20520;-75
2022/07/14 01:53:34;;;;;;;1.95;1.25;;;19.00;84.40;;;;;;5096542;28;20460;-74
2022/07/14 01:56:01;;;;;;;1.52;1.42;;;18.90;84.60;;;;;;5091724;28;20040;-75
2022/07/14 01:58:26;;;;;;;1.50;1.40;;;18.90;85.10;;;;;;5096007;28;20445;-73
2022/07/14 02:03:37;;;;;;;1.67;1.10;;;18.80;86.20;;;;;;5084149;28;20488;-74
2022/07/14 02:06:03;;;;;;;1.33;1.23;;;18.70;86.50;;;;;;5096912;28;20464;-74
2022/07/14 02:08:29;;;;;;;1.73;1.33;;;18.60;86.80;;;;;;5088794;28;20050;-73
2022/07/14 02:13:39;;;;;;;2.15;1.48;;;18.50;87.60;;;;;;5093144;28;20076;-73
2022/07/14 02:16:05;;;;;;;1.92;1.13;;;18.40;87.80;;;;;;5066106;28;20076;-70
2022/07/14 02:18:31;;;;;;;1.60;1.33;;;18.40;88.00;;;;;;5066521;28;20078;-72
2022/07/14 02:20:57;;;;;;;1.15;1.10;;;18.40;88.00;;;;;;5071963;28;20123;-73
2022/07/14 02:23:23;;;;;;;2.13;1.45;;;18.30;88.30;;;;;;5074438;28;20393;-74
2022/07/14 02:25:49;;;;;;;1.73;1.33;;;18.30;88.50;;;;;;5062650;28;20028;-74
2022/07/14 02:28:16;;;;;;;1.52;1.17;;;18.30;88.40;;;;;;5074278;28;20036;-74
2022/07/14 02:30:41;;;;;;;2.05;1.30;;;18.30;88.70;;;;;;5074383;28;20071;-74
2022/07/14 02:33:07;;;;;;;1.45;1.10;;;18.20;88.90;;;;;;5068841;28;20070;-73
2022/07/14 02:35:33;;;;;;;1.63;1.35;;;18.20;89.10;;;;;;5062791;28;20092;-73
2022/07/14 02:37:59;;;;;;;1.38;1.25;;;18.10;89.30;;;;;;5070238;28;20449;-73
2022/07/14 02:40:25;;;;;;;2.65;1.02;;;18.10;89.10;;;;;;5066195;28;20017;-72
2022/07/14 02:42:50;;;;;;;1.25;1.17;;;18.10;89.30;;;;;;5071467;28;20082;-73
2022/07/14 02:45:16;;;;;;;1.05;0.98;;;18.00;89.30;;;;;;5068819;28;20036;-73
2022/07/14 02:47:42;;;;;;;2.70;1.40;;;18.00;89.50;;;;;;5073194;28;20056;-73
2022/07/14 02:50:10;;;;;;;1.35;1.25;;;18.00;89.40;;;;;;5070102;28;20027;-73
2022/07/14 02:52:35;;;;;;;1.27;1.02;;;18.00;89.50;;;;;;5069968;28;20033;-74
2022/07/14 02:55:02;;;;;;;3.40;1.15;;;17.90;90.10;;;;;;5070224;28;20086;-72
2022/07/14 02:57:28;;;;;;;2.13;1.27;;;17.90;89.80;;;;;;5073719;28;20035;-73
2022/07/14 02:59:54;;;;;;;1.40;1.30;;;17.90;89.60;;;;;;5068786;28;20040;-74
2022/07/14 03:02:20;;;;;;;1.15;1.05;;;17.90;89.10;;;;;;5073155;28;20406;-73
2022/07/14 03:04:45;;;;;;;1.30;1.10;;;17.90;88.70;;;;;;5065815;28;20094;-72
2022/07/14 03:07:11;;;;;;;1.40;1.08;;;17.90;88.70;;;;;;5073584;28;20116;-73
2022/07/14 03:09:37;;;;;;;2.15;0.93;;;17.90;88.50;;;;;;5069150;28;20060;-74
2022/07/14 03:12:03;;;;;;;0.80;0.80;;;18.00;88.00;;;;;;5070667;28;20102;-73
2022/07/14 03:14:28;;;;;;;1.27;1.17;;;17.90;87.60;;;;;;5063990;28;20533;-73
2022/07/14 03:16:54;;;;;;;1.52;0.93;;;18.00;87.70;;;;;;5071991;28;20025;-73
2022/07/14 03:19:19;;;;;;;1.10;1.00;;;18.00;88.10;;;;;;5072145;28;20051;-73
2022/07/14 03:21:45;;;;;;;2.30;1.63;;;17.90;88.40;;;;;;5066423;28;20031;-72
2022/07/14 03:24:10;;;;;;;0.95;0.95;;;17.90;88.60;;;;;;5071545;28;20070;-73
2022/07/14 03:26:36;;;;;;;1.40;1.30;;;17.90;88.80;;;;;;5067541;28;20518;-73
2022/07/14 03:29:02;;;;;;;1.20;1.00;;;17.90;88.80;;;;;;5071044;28;20032;-73
2022/07/14 03:31:28;;;;;;;1.85;1.20;;;17.90;89.20;;;;;;5064320;28;20047;-74
2022/07/14 03:33:54;;;;;;;1.00;0.90;;;17.80;89.20;;;;;;5064449;28;20449;-74
2022/07/14 03:36:23;;;;;;;1.00;0.90;;;17.80;89.40;;;;;;5070288;28;20092;-73
2022/07/14 03:38:49;;;;;;;2.07;0.93;;;17.70;89.90;;;;;;5068492;28;20039;-73
2022/07/14 03:41:14;;;;;;;1.85;0.90;;;17.60;89.80;;;;;;5066833;28;20028;-69
2022/07/14 03:43:40;;;;;;;2.75;1.40;;;17.60;89.70;;;;;;5068252;28;20029;-70
2022/07/14 03:46:07;;;;;;;0.95;0.85;;;17.60;90.00;;;;;;5066921;28;20067;-76
2022/07/14 03:48:33;;;;;;;1.08;0.88;;;17.50;90.00;;;;;;5073419;28;20043;-73
2022/07/14 03:50:59;;;;;;;1.90;1.25;;;17.50;90.10;;;;;;5073741;28;20036;-73
2022/07/14 03:53:25;;;;;;;3.65;1.10;;;17.40;90.30;;;;;;5069142;28;20262;-72
2022/07/14 03:55:51;;;;;;;1.48;1.23;;;17.50;90.80;;;;;;5068816;28;20043;-73
2022/07/14 03:58:17;;;;;;;1.35;1.10;;;17.40;90.80;;;;;;5071958;28;20037;-74
2022/07/14 04:00:43;;;;;;;1.30;1.20;;;17.40;90.90;;;;;;5065124;28;20059;-74
2022/07/14 04:03:09;;;;;;;1.65;0.90;;;17.40;91.10;;;;;;5064769;28;20037;-73
2022/07/14 04:05:34;;;;;;;1.30;1.20;;;17.40;91.30;;;;;;5069256;28;20380;-74
2022/07/14 04:08:00;;;;;;;1.10;1.00;;;17.50;91.40;;;;;;5072319;28;20147;-74
2022/07/14 04:10:26;;;;;;;1.75;1.13;;;17.40;91.50;;;;;;5067584;28;20469;-74
2022/07/14 04:12:52;;;;;;;1.30;1.20;;;17.40;91.60;;;;;;5066605;28;20500;-74
2022/07/14 04:15:17;;;;;;;1.33;1.10;;;17.40;91.70;;;;;;5068639;28;20063;-74
2022/07/14 04:17:43;;;;;;;1.30;1.20;;;17.50;91.80;;;;;;5067183;28;20024;-74
2022/07/14 04:20:09;;;;;;;1.40;1.20;;;17.50;91.80;;;;;;5071976;28;20107;-72
2022/07/14 04:22:35;;;;;;;1.80;1.20;;;17.50;91.80;;;;;;5061673;28;20028;-73
2022/07/14 04:25:01;;;;;;;1.75;1.23;;;17.50;92.00;;;;;;5069855;28;20158;-73
2022/07/14 04:27:27;;;;;;;1.33;1.17;;;17.50;92.10;;;;;;5068423;28;20036;-74
2022/07/14 04:29:53;;;;;;;1.17;1.05;;;17.50;92.20;;;;;;5069160;28;20029;-74
2022/07/14 04:32:19;;;;;;;1.98;1.42;;;17.50;92.30;;;;;;5066381;28;20060;-75
2022/07/14 04:34:45;;;;;;;1.58;1.20;;;17.50;92.30;;;;;;5070303;28;20055;-76
2022/07/14 04:37:11;;;;;;;1.13;1.02;;;17.50;92.40;;;;;;5071797;28;20029;-71
2022/07/14 04:39:37;;;;;;;1.30;1.20;;;17.50;92.50;;;;;;5077920;28;20465;-74
2022/07/14 04:42:04;;;;;;;1.27;1.17;;;17.50;92.70;;;;;;5075272;28;20059;-74
2022/07/14 04:44:29;;;;;;;4.13;1.27;;;17.50;92.80;;;;;;5068890;28;20037;-75
2022/07/14 04:46:55;;;;;;;1.80;1.08;;;17.60;92.70;;;;;;5076156;28;20084;-74
2022/07/14 04:52:05;;;;;;;1.05;0.90;;;17.80;92.20;;;;;;5071370;28;20082;-74
2022/07/14 04:54:35;;;;;;;2.13;0.90;;;17.90;92.20;;;;;;5072574;28;20037;-72
2022/07/14 04:57:03;;;;;;;1.92;0.90;;;18.00;92.00;;;;;;5074876;28;20035;-74
2022/07/14 04:59:30;;;;;;;1.30;1.20;;;18.20;91.90;;;;;;5071546;28;20036;-74
2022/07/14 05:01:56;;;;;;;2.95;1.20;;;18.30;91.80;;;;;;5071988;28;20036;-75
2022/07/14 05:04:22;;;;;;;1.23;1.13;;;18.50;92.30;;;;;;5068556;28;20058;-74
2022/07/14 05:06:49;;;;;;;1.60;1.42;;;18.60;92.40;;;;;;5069802;28;20498;-74
2022/07/14 05:09:17;;;;;;;1.40;1.30;;;18.70;92.30;;;;;;5074934;28;20032;-74
2022/07/14 05:11:43;;;;;;;2.63;1.92;;;18.90;92.10;;;;;;5069052;28;20117;-74
2022/07/14 05:14:09;;;;;;;1.38;1.27;;;18.90;91.60;;;;;;5086295;28;20050;-74
2022/07/14 05:16:35;;;;;;;1.40;1.30;;;19.10;91.60;;;;;;5089369;28;20036;-74
2022/07/14 05:19:01;;;;;;;2.35;1.10;;;19.20;91.70;;;;;;5095399;28;20032;-75
2022/07/14 05:21:26;;;;;;;3.72;1.35;;;19.30;91.50;;;;;;5096042;28;20024;-74
2022/07/14 05:23:52;;;;;;;2.67;1.20;;;19.50;90.30;;;;;;5096632;28;20035;-74
2022/07/14 05:26:18;;;;;;;2.95;1.25;;;19.70;90.20;;;;;;5100848;28;20058;-73
2022/07/14 05:28:44;;;;;;;2.50;1.65;;;19.90;90.30;;;;;;5092482;28;20063;-73
2022/07/14 05:31:10;;;;;;;1.40;1.30;;;20.00;89.40;;;;;;5092440;28;20081;-71
2022/07/14 05:33:36;;;;;;;1.77;1.60;;;20.20;89.20;;;;;;5090374;28;20024;-74
2022/07/14 05:36:03;;;;;;;6.50;2.28;;;20.30;89.20;;;;;;5101338;28;20081;-73
2022/07/14 05:38:31;;;;;;;3.78;1.90;;;20.40;89.30;;;;;;5091375;28;20023;-70
2022/07/14 05:40:58;;;;;;;2.88;1.80;;;20.50;89.00;;;;;;5093831;28;20032;-73
2022/07/14 05:43:24;;;;;;;2.47;1.50;;;20.60;88.70;;;;;;5099527;28;20362;-74
2022/07/14 05:45:50;;;;;;;3.92;1.58;;;20.80;87.10;;;;;;5092496;28;20024;-77
2022/07/14 05:48:15;;;;;;;4.85;1.85;;;20.90;86.00;;;;;;5097461;28;20078;-76
2022/07/14 05:50:41;;;;;;;2.67;1.50;;;21.00;85.80;;;;;;5092002;28;20055;-76
2022/07/14 05:53:09;;;;;;;3.13;1.40;;;21.20;85.70;;;;;;5105631;28;20099;-79
2022/07/14 05:55:35;;;;;;;2.55;1.98;;;21.30;85.60;;;;;;5090774;28;20039;-76
2022/07/14 05:58:01;;;;;;;1.08;1.02;;;21.50;85.00;;;;;;5095093;28;20044;-75
2022/07/14 06:00:27;;;;;;;2.70;1.30;;;21.60;84.70;;;;;;5097572;28;20035;-76
2022/07/14 06:02:52;;;;;;;1.55;1.15;;;21.70;84.30;;;;;;5087527;28;20024;-72
2022/07/14 06:05:18;;;;;;;2.03;1.30;;;21.80;83.90;;;;;;5093929;28;20047;-71
2022/07/14 06:07:44;;;;;;;4.00;1.40;;;22.00;84.20;;;;;;5092402;28;20074;-72
2022/07/14 06:10:11;;;;;;;4.03;1.88;;;22.20;84.60;;;;;;5091859;28;20152;-71
2022/07/14 06:12:38;;;;;;;5.00;1.30;;;22.40;84.30;;;;;;5095030;28;20024;-72
2022/07/14 06:15:07;;;;;;;3.28;1.52;;;22.60;84.70;;;;;;5089977;28;20511;-72
2022/07/14 06:17:33;;;;;;;3.88;1.90;;;22.70;83.50;;;;;;5090327;28;20025;-72
2022/07/14 06:20:07;;;;;;;4.18;2.00;;;22.90;84.20;;;;;;5094306;28;21205;-72
2022/07/14 06:22:34;;;;;;;4.30;1.83;;;23.10;84.60;;;;;;5093280;28;20038;-72
2022/07/14 06:25:00;;;;;;;3.72;1.50;;;23.20;84.10;;;;;;5094232;28;20040;-72
2022/07/14 06:27:25;;;;;;;2.88;1.30;;;23.30;83.10;;;;;;5086433;28;20303;-72
2022/07/14 06:29:51;;;;;;;4.15;1.65;;;23.50;82.60;;;;;;5087696;28;20035;-72
2022/07/14 06:32:16;;;;;;;3.78;1.70;;;23.70;82.10;;;;;;5096087;28;20101;-72
2022/07/14 06:34:42;;;;;;;2.28;1.33;;;23.80;81.60;;;;;;5090498;28;20036;-72
2022/07/14 06:37:08;;;;;;;2.15;1.45;;;23.90;81.60;;;;;;5089958;28;20067;-72
2022/07/14 06:39:35;;;;;;;3.67;1.67;;;23.90;81.00;;;;;;5088690;28;20393;-75
2022/07/14 06:42:00;;;;;;;1.70;1.60;;;24.00;81.40;;;;;;5097443;28;20069;-74
2022/07/14 06:44:26;;;;;;;5.57;2.00;;;24.10;82.00;;;;;;5095963;28;20465;-72
2022/07/14 06:46:52;;;;;;;1.55;1.45;;;24.30;82.60;;;;;;5095497;28;20050;-81
2022/07/14 06:49:17;;;;;;;4.28;1.92;;;24.50;82.50;;;;;;5091115;28;20032;-74
2022/07/14 06:51:43;;;;;;;3.97;1.70;;;24.70;82.60;;;;;;5093416;28;20024;-74
2022/07/14 06:54:08;;;;;;;3.80;1.95;;;24.90;82.80;;;;;;5089636;28;20423;-72
2022/07/14 06:56:34;;;;;;;3.63;2.15;;;25.00;81.20;;;;;;5095589;28;20055;-71
2022/07/14 06:59:00;;;;;;;5.78;2.40;;;25.00;83.00;;;;;;5089441;28;20023;-72
2022/07/14 07:01:26;;;;;;;5.97;2.40;;;25.10;82.80;;;;;;5084677;28;20035;-73
2022/07/14 07:03:51;;;;;;;9.20;2.67;;;25.20;82.80;;;;;;5090940;28;20062;-73
2022/07/14 07:09:01;;;;;;;12.70;2.55;;;25.30;82.20;;;;;;5085520;28;20093;-71
2022/07/14 07:11:27;;;;;;;7.78;2.90;;;25.30;82.20;;;;;;5092431;28;20388;-73
2022/07/14 07:13:52;;;;;;;5.60;2.55;;;25.50;81.30;;;;;;5094089;28;20385;-73
2022/07/14 07:16:18;;;;;;;5.82;2.35;;;25.40;81.00;;;;;;5093679;28;20028;-73
2022/07/14 07:18:43;;;;;;;9.20;2.33;;;25.40;81.30;;;;;;5094879;27;20021;-73
2022/07/14 07:21:12;;;;;;;4.85;2.30;;;25.50;81.40;;;;;;5091312;28;20020;-72
2022/07/14 07:23:41;;;;;;;11.55;3.40;;;25.70;81.60;;;;;;5089522;28;20032;-75
2022/07/14 07:26:07;;;;;;;7.00;2.25;;;25.90;81.10;;;;;;5096580;28;20202;-75
2022/07/14 07:28:34;;;;;;;3.63;2.28;;;26.10;81.00;;;;;;5092794;28;20027;-75
2022/07/14 07:30:59;;;;;;;4.47;2.20;;;26.50;80.20;;;;;;5086068;28;20047;-82
2022/07/14 07:33:25;;;;;;;3.70;2.30;;;26.80;80.20;;;;;;5095743;28;20032;-77
2022/07/14 07:35:51;;;;;;;9.75;2.80;;;26.90;79.60;;;;;;5089433;28;20057;-73
2022/07/14 07:38:17;;;;;;;7.22;3.10;;;27.00;78.30;;;;;;5091314;28;20030;-72
2022/07/14 07:40:44;;;;;;;7.70;2.33;;;27.10;79.10;;;;;;5083822;28;20107;-72
2022/07/14 07:43:09;;;;;;;6.82;2.70;;;27.20;78.60;;;;;;5090937;28;20032;-73
2022/07/14 07:45:35;;;;;;;7.88;2.65;;;27.30;78.70;;;;;;5091006;28;20111;-73
2022/07/14 07:48:04;;;;;;;5.53;2.22;;;27.30;77.90;;;;;;5095259;28;20472;-73
2022/07/14 07:50:30;;;;;;;6.00;2.20;;;27.30;77.60;;;;;;5099683;28;20130;-72
2022/07/14 07:52:56;;;;;;;9.40;2.60;;;27.40;77.90;;;;;;5091990;28;20510;-73
2022/07/14 07:55:21;;;;;;;7.38;2.72;;;27.50;77.50;;;;;;5072397;28;20034;-72
2022/07/14 07:57:47;;;;;;;7.18;2.17;;;27.60;77.60;;;;;;5084962;28;20028;-73
2022/07/14 08:00:13;;;;;;;6.35;2.30;;;27.90;76.50;;;;;;5085982;28;20024;-71
2022/07/14 08:02:50;;;;;;;5.65;2.80;;;28.10;76.00;;;;;;5076831;28;20025;-71
2022/07/14 08:05:17;;;;;;;7.78;2.58;;;28.50;75.20;;;;;;5087920;28;20392;-73
2022/07/14 08:07:43;;;;;;;8.10;2.80;;;28.70;74.60;;;;;;5086812;28;20058;-72
2022/07/14 08:10:08;;;;;;;7.22;2.97;;;28.90;74.10;;;;;;5083634;28;20024;-72
2022/07/14 08:12:34;;;;;;;5.35;2.72;;;29.20;73.40;;;;;;5088335;28;20024;-73
2022/07/14 08:15:00;;;;;;;9.45;3.28;;;29.40;72.30;;;;;;5083715;28;20080;-72
2022/07/14 08:17:25;;;;;;;6.78;3.00;;;29.50;71.50;;;;;;5087819;28;20028;-72
2022/07/14 08:19:51;;;;;;;8.10;2.38;;;29.70;72.90;;;;;;5082717;28;20025;-72
2022/07/14 08:22:24;;;;;;;7.88;2.70;;;29.80;68.80;;;;;;5091333;28;20027;-72
2022/07/14 08:24:50;;;;;;;4.43;2.17;;;29.80;69.90;;;;;;5089602;28;20028;-72
2022/07/14 08:27:16;;;;;;;13.00;2.95;;;29.80;70.30;;;;;;5087779;28;20028;-71
2022/07/14 08:29:42;;;;;;;5.45;3.03;;;29.80;69.60;;;;;;5088106;28;20104;-72
2022/07/14 08:32:07;;;;;;;11.05;3.33;;;29.70;70.20;;;;;;5089790;28;20038;-72
2022/07/14 08:34:33;;;;;;;20.88;3.78;;;29.70;69.30;;;;;;5088309;28;20072;-73
2022/07/14 08:36:59;;;;;;;5.85;2.65;;;29.80;68.60;;;;;;5085477;28;20063;-72
2022/07/14 08:39:25;;;;;;;5.78;2.88;;;29.90;68.00;;;;;;5096266;28;20020;-72
2022/07/14 08:41:54;;;;;;;5.72;2.00;;;30.00;68.10;;;;;;5088173;28;20376;-71
2022/07/14 08:44:22;;;;;;;3.75;1.83;;;30.00;65.10;;;;;;5075528;28;20058;-72
2022/07/14 08:46:47;;;;;;;5.78;1.65;;;30.00;64.60;;;;;;5091582;28;20082;-71
2022/07/14 08:49:17;;;;;;;4.60;1.80;;;30.00;64.10;;;;;;5084926;28;20413;-70
2022/07/14 08:51:43;;;;;;;6.10;1.90;;;30.10;63.20;;;;;;5088507;28;20031;-71
2022/07/14 08:54:09;;;;;;;1.92;1.58;;;30.30;62.20;;;;;;5091278;28;20297;-71
2022/07/14 08:56:36;;;;;;;3.97;1.58;;;30.40;59.80;;;;;;5084993;28;20029;-72
2022/07/14 08:59:02;;;;;;;6.00;1.80;;;30.50;57.60;;;;;;5089034;28;20028;-75
2022/07/14 09:01:28;;;;;;;3.45;1.83;;;30.70;56.60;;;;;;5092275;28;20032;-74
2022/07/14 09:03:54;;;;;;;2.22;1.80;;;30.90;60.70;;;;;;5093067;28;20371;-76
2022/07/14 09:06:42;;;;;;;6.72;1.67;;;31.10;61.00;;;;;;5089812;28;20036;-75
2022/07/14 09:09:07;;;;;;;4.20;1.45;;;31.30;55.40;;;;;;5083346;28;20020;-76
2022/07/14 09:11:33;;;;;;;6.10;1.52;;;31.40;55.50;;;;;;5098178;28;20092;-76
2022/07/14 09:14:09;;;;;;;1.88;1.63;;;31.50;54.20;;;;;;5090294;28;20494;-76
2022/07/14 09:16:35;;;;;;;11.43;1.70;;;31.60;53.70;;;;;;5082860;28;20044;-75
2022/07/14 09:19:06;;;;;;;5.82;1.23;;;31.80;53.50;;;;;;5092551;28;20372;-75
2022/07/14 09:21:32;;;;;;;3.00;1.58;;;32.00;52.80;;;;;;5087072;28;20194;-76
2022/07/14 09:23:59;;;;;;;6.28;1.45;;;32.00;53.00;;;;;;5083267;28;20028;-76
2022/07/14 09:26:25;;;;;;;5.93;1.50;;;32.20;53.20;;;;;;5085723;28;20476;-75
2022/07/14 09:28:51;;;;;;;5.05;1.35;;;32.40;52.20;;;;;;5093419;28;20074;-76
2022/07/14 09:31:40;;;;;;;1.70;1.15;;;32.60;51.40;;;;;;5090986;28;20043;-75
2022/07/14 09:34:06;;;;;;;3.77;1.47;;;32.70;52.30;;;;;;5095692;28;20039;-76
2022/07/14 09:36:36;;;;;;;8.02;1.67;;;32.80;50.70;;;;;;5088014;28;20032;-75
2022/07/14 09:39:06;;;;;;;2.22;1.35;;;32.80;50.50;;;;;;5094903;28;20028;-77
2022/07/14 09:41:53;;;;;;;3.25;1.38;;;32.90;50.00;;;;;;5086145;28;20020;-76
2022/07/14 09:44:19;;;;;;;10.30;1.83;;;32.90;49.90;;;;;;5086698;28;20034;-76
2022/07/14 09:46:47;;;;;;;2.80;1.35;;;33.00;50.80;;;;;;5096209;28;20023;-76
2022/07/14 09:49:14;;;;;;;21.83;3.15;;;33.20;49.00;;;;;;5086186;28;20106;-72
2022/07/14 09:52:01;;;;;;;7.38;1.60;;;33.40;49.40;;;;;;5095565;28;20038;-71
2022/07/14 09:54:44;;;;;;;3.45;1.38;;;33.50;48.80;;;;;;5086429;28;20383;-70
2022/07/14 09:57:12;;;;;;;6.38;1.58;;;33.60;48.10;;;;;;5097202;28;20028;-71
2022/07/14 09:59:44;;;;;;;6.93;1.70;;;33.80;47.60;;;;;;5095822;28;20063;-71
2022/07/14 10:02:15;;;;;;;2.20;1.52;;;;;;;;;;5085101;28;20028;-70
2022/07/14 10:04:43;;;;;;;2.08;1.25;;;34.10;46.30;;;;;;5092421;28;20028;-70
2022/07/14 10:07:08;;;;;;;2.60;1.63;;;34.10;47.10;;;;;;5099443;28;20028;-70
2022/07/14 10:09:37;;;;;;;4.75;1.52;;;34.00;47.20;;;;;;5085280;28;20027;-72
2022/07/14 10:12:05;;;;;;;7.47;1.75;;;33.90;46.90;;;;;;5098002;28;20058;-72
2022/07/14 10:14:31;;;;;;;10.77;1.73;;;33.70;47.10;;;;;;5092013;28;20056;-71
2022/07/14 10:16:58;;;;;;;7.53;1.50;;;33.60;47.40;;;;;;5089822;28;20026;-72
2022/07/14 10:19:25;;;;;;;9.77;1.65;;;33.60;46.90;;;;;;5088789;28;20492;-70
2022/07/14 10:21:55;;;;;;;19.15;2.25;;;33.50;46.40;;;;;;5092303;28;20385;-71
2022/07/14 10:24:23;;;;;;;10.85;1.63;;;33.30;47.00;;;;;;5088716;28;20053;-71
2022/07/14 10:26:50;;;;;;;4.78;1.63;;;33.10;47.40;;;;;;5095293;28;20034;-71
2022/07/14 10:29:16;;;;;;;5.93;2.03;;;33.20;46.50;;;;;;5097519;28;20032;-70
2022/07/14 10:32:06;;;;;;;1.30;1.30;;;33.40;47.40;;;;;;5101397;28;20031;-71
2022/07/14 10:34:37;;;;;;;3.67;1.70;;;33.50;47.00;;;;;;5090026;28;20089;-70
2022/07/14 10:37:34;;;;;;;1.98;1.00;;;33.60;46.40;;;;;;5092616;28;20546;-71
2022/07/14 10:40:15;;;;;;;1.40;1.30;;;33.80;46.30;;;;;;5080269;28;20081;-71
2022/07/14 10:42:52;;;;;;;2.85;1.27;;;33.90;46.40;;;;;;5084830;28;20028;-71
2022/07/14 10:45:18;;;;;;;3.50;1.40;;;34.20;46.40;;;;;;5090350;28;20513;-71
2022/07/14 10:47:48;;;;;;;1.52;1.30;;;34.30;45.60;;;;;;5097977;28;20066;-71
2022/07/14 10:50:25;;;;;;;1.70;1.60;;;34.30;45.60;;;;;;5091337;28;20023;-68
2022/07/14 10:52:54;;;;;;;1.42;1.30;;;;;;;;;;5090293;28;20032;-72
2022/07/14 10:55:22;;;;;;;6.78;1.50;;;34.50;44.80;;;;;;5092610;28;20040;-71
2022/07/14 10:58:16;;;;;;;2.38;1.50;;;34.70;44.60;;;;;;5087536;28;20107;-73
2022/07/14 11:00:47;;;;;;;4.00;1.77;;;34.80;44.70;;;;;;5082493;27;20043;-73
2022/07/14 11:03:55;;;;;;;1.90;1.58;;;34.90;44.10;;;;;;5092013;28;20035;-69
2022/07/14 11:06:21;;;;;;;5.35;1.60;;;35.10;44.20;;;;;;5085903;28;20031;-72
2022/07/14 11:09:18;;;;;;;4.53;1.45;;;35.30;43.70;;;;;;5087285;28;20388;-72
2022/07/14 11:12:08;;;;;;;1.13;1.08;;;35.40;43.50;;;;;;5092669;28;20032;-72
2022/07/14 11:14:40;;;;;;;1.60;1.50;;;35.50;43.00;;;;;;5091389;28;20040;-72
2022/07/14 11:17:06;;;;;;;3.45;1.52;;;35.50;42.90;;;;;;5086764;28;20077;-72
2022/07/14 11:19:37;;;;;;;4.43;1.27;;;35.50;43.20;;;;;;5094926;28;20027;-72
2022/07/14 11:22:18;;;;;;;1.20;1.10;;;35.60;43.70;;;;;;5087417;28;20032;-72
2022/07/14 11:24:50;;;;;;;3.20;1.63;;;35.60;42.90;;;;;;5086737;28;20023;-72
2022/07/14 11:27:32;;;;;;;2.63;1.30;;;35.60;42.90;;;;;;5097396;28;20062;-70
2022/07/14 11:30:15;;;;;;;7.00;1.67;;;35.70;42.70;;;;;;5080109;28;20107;-73
2022/07/14 11:32:42;;;;;;;2.95;1.52;;;35.70;43.50;;;;;;5088267;28;20019;-72
2022/07/14 11:38:01;;;;;;;14.13;2.00;;;35.90;43.50;;;;;;5092530;28;20039;-73
2022/07/14 11:40:39;;;;;;;1.60;1.48;;;;;;;;;;5092002;28;20024;-74
2022/07/14 11:43:30;;;;;;;7.93;1.90;;;36.20;42.40;;;;;;5092334;28;20028;-72
2022/07/14 11:45:58;;;;;;;5.53;1.60;;;36.30;43.00;;;;;;5086898;28;20031;-72
2022/07/14 11:48:53;;;;;;;6.38;1.48;;;36.40;44.10;;;;;;5084876;28;20032;-70
2022/07/14 11:51:22;;;;;;;7.10;1.92;;;36.00;42.40;;;;;;5091565;28;20089;-71
2022/07/14 11:54:01;;;;;;;10.25;2.05;;;35.70;43.20;;;;;;5089438;28;20035;-70
2022/07/14 11:56:29;;;;;;;;;;;35.70;43.50;;;;;;5084613;28;20032;-74
2022/07/14 11:59:03;;;;;;;7.10;1.60;;;35.60;43.20;;;;;;5094876;28;19908;-71
2022/07/14 12:01:36;;;;;;;2.33;1.60;;;35.50;43.60;;;;;;5083130;28;20032;-71
2022/07/14 12:04:06;;;;;;;4.68;1.85;;;35.60;44.20;;;;;;5090155;28;20031;-71
2022/07/14 12:06:32;;;;;;;5.03;1.48;;;35.60;43.80;;;;;;5091200;28;20043;-72
2022/07/14 12:08:58;;;;;;;7.60;1.67;;;35.70;44.00;;;;;;5087532;28;20020;-70
2022/07/14 12:11:24;;;;;;;3.28;1.80;;;35.80;44.50;;;;;;5084094;28;20032;-71
2022/07/14 12:13:53;;;;;;;11.23;1.83;;;35.70;44.80;;;;;;5086429;28;20038;-70
2022/07/14 12:16:21;;;;;;;5.78;1.95;;;35.60;44.50;;;;;;5078113;28;20043;-71
2022/07/14 12:18:47;;;;;;;2.80;1.70;;;35.60;44.80;;;;;;5086526;28;20067;-72
2022/07/14 12:21:14;;;;;;;6.10;1.80;;;35.70;44.30;;;;;;5084941;28;20495;-69
2022/07/14 12:24:00;;;;;;;2.88;2.08;;;35.70;44.50;;;;;;5085254;28;20042;-72
2022/07/14 12:26:26;;;;;;;2.45;1.75;;;35.50;44.10;;;;;;5096133;28;20063;-71
2022/07/14 12:28:56;;;;;;;5.32;1.85;;;35.20;44.40;;;;;;5085799;28;20097;-72
2022/07/14 12:31:23;;;;;;;6.30;1.80;;;35.10;44.00;;;;;;5081962;28;20028;-72
2022/07/14 12:33:53;;;;;;;4.90;1.58;;;35.20;44.00;;;;;;5087920;28;20158;-72
2022/07/14 12:36:22;;;;;;;7.90;1.40;;;35.50;43.70;;;;;;5085551;28;20040;-73
2022/07/14 12:38:48;;;;;;;2.60;1.60;;;35.90;43.30;;;;;;5081653;28;20024;-72
2022/07/14 12:41:20;;;;;;;2.90;1.20;;;36.10;43.20;;;;;;5092503;28;20032;-69
2022/07/14 12:43:46;;;;;;;6.88;1.90;;;36.30;42.40;;;;;;5102733;28;20031;-73
2022/07/14 12:46:13;;;;;;;5.68;1.65;;;36.40;42.30;;;;;;5095325;28;20024;-69
2022/07/14 12:48:48;;;;;;;3.75;1.75;;;36.40;42.30;;;;;;5082916;28;20026;-73
2022/07/14 12:51:20;;;;;;;3.60;1.63;;;36.30;42.40;;;;;;5089864;28;20055;-69
2022/07/14 12:54:11;;;;;;;2.22;1.65;;;36.10;42.30;;;;;;5093567;28;20027;-74
2022/07/14 12:56:53;;;;;;;4.93;1.40;;;36.00;42.30;;;;;;5084059;28;20040;-72
2022/07/14 12:59:20;;;;;;;1.65;1.27;;;36.00;42.10;;;;;;5097000;28;20024;-72
2022/07/14 13:01:53;;;;;;;8.80;1.65;;;35.90;41.90;;;;;;5093414;28;20031;-72
2022/07/14 13:04:37;;;;;;;4.40;1.50;;;36.00;42.20;;;;;;5092534;28;20044;-73
2022/07/14 13:07:16;;;;;;;2.65;1.83;;;36.20;42.00;;;;;;5091532;28;20084;-72